sensor_id;sensor_type;location;lat;lon;timestamp;P1;durP1;ratioP1;P2;durP2;ratioP2
27746;SDS011;15138;51.012;4.692;2023-06-10T00:01:21;9.57;;;5.35;;
27746;SDS011;15138;51.012;4.692;2023-06-10T00:03:50;7.82;;;4.95;;
27746;SDS011;15138;51.012;4.692;2023-06-10T00:06:20;6.20;;;4.47;;
27746;SDS011;15138;51.012;4.692;2023-06-10T00:08:50;7.75;;;5.43;;
27746;SDS011;15138;51.012;4.692;2023-06-10T00:11:19;9.07;;;4.75;;
27746;SDS011;15138;51.012;4.692;2023-06-10T00:13:48;8.75;;;5.53;;
27746;SDS011;15138;51.012;4.692;2023-06-10T00:16:16;10.85;;;5.32;;
27746;SDS011;15138;51.012;4.692;2023-06-10T00:18:45;7.15;;;4.80;;
27746;SDS011;15138;51.012;4.692;2023-06-10T00:21:15;7.10;;;5.25;;
27746;SDS011;15138;51.012;4.692;2023-06-10T00:23:45;8.52;;;5.47;;
27746;SDS011;15138;51.012;4.692;2023-06-10T00:26:13;7.53;;;5.10;;
27746;SDS011;15138;51.012;4.692;2023-06-10T00:28:41;5.63;;;4.95;;
27746;SDS011;15138;51.012;4.692;2023-06-10T00:31:11;8.93;;;5.35;;
27746;SDS011;15138;51.012;4.692;2023-06-10T00:33:39;6.32;;;4.93;;
27746;SDS011;15138;51.012;4.692;2023-06-10T00:36:08;9.77;;;5.70;;
27746;SDS011;15138;51.012;4.692;2023-06-10T00:38:36;7.50;;;5.03;;
27746;SDS011;15138;51.012;4.692;2023-06-10T00:41:08;7.15;;;5.30;;
27746;SDS011;15138;51.012;4.692;2023-06-10T00:43:36;7.82;;;4.60;;
27746;SDS011;15138;51.012;4.692;2023-06-10T00:46:04;8.68;;;5.13;;
27746;SDS011;15138;51.012;4.692;2023-06-10T00:48:33;8.30;;;5.25;;
27746;SDS011;15138;51.012;4.692;2023-06-10T00:51:02;7.78;;;4.47;;
27746;SDS011;15138;51.012;4.692;2023-06-10T00:53:30;5.75;;;4.85;;
27746;SDS011;15138;51.012;4.692;2023-06-10T00:55:59;9.70;;;5.40;;
27746;SDS011;15138;51.012;4.692;2023-06-10T00:58:30;7.30;;;5.07;;
27746;SDS011;15138;51.012;4.692;2023-06-10T01:00:58;6.55;;;5.20;;
27746;SDS011;15138;51.012;4.692;2023-06-10T01:03:27;6.40;;;5.28;;
27746;SDS011;15138;51.012;4.692;2023-06-10T01:05:57;12.52;;;5.43;;
27746;SDS011;15138;51.012;4.692;2023-06-10T01:08:32;8.82;;;5.68;;
27746;SDS011;15138;51.012;4.692;2023-06-10T01:11:01;10.02;;;5.60;;
27746;SDS011;15138;51.012;4.692;2023-06-10T01:13:34;5.20;;;4.70;;
27746;SDS011;15138;51.012;4.692;2023-06-10T01:16:04;7.68;;;5.07;;
27746;SDS011;15138;51.012;4.692;2023-06-10T01:18:33;7.93;;;5.47;;
27746;SDS011;15138;51.012;4.692;2023-06-10T01:21:01;7.88;;;5.05;;
27746;SDS011;15138;51.012;4.692;2023-06-10T01:23:31;6.40;;;4.97;;
27746;SDS011;15138;51.012;4.692;2023-06-10T01:26:00;7.75;;;5.15;;
27746;SDS011;15138;51.012;4.692;2023-06-10T01:28:31;7.55;;;5.85;;
27746;SDS011;15138;51.012;4.692;2023-06-10T01:31:03;9.00;;;5.30;;
27746;SDS011;15138;51.012;4.692;2023-06-10T01:33:35;7.05;;;5.30;;
27746;SDS011;15138;51.012;4.692;2023-06-10T01:36:04;7.13;;;5.45;;
27746;SDS011;15138;51.012;4.692;2023-06-10T01:38:36;6.88;;;5.32;;
27746;SDS011;15138;51.012;4.692;2023-06-10T01:41:05;5.47;;;4.90;;
27746;SDS011;15138;51.012;4.692;2023-06-10T01:43:34;11.88;;;5.47;;
27746;SDS011;15138;51.012;4.692;2023-06-10T01:46:02;9.88;;;5.40;;
27746;SDS011;15138;51.012;4.692;2023-06-10T01:48:31;7.97;;;5.38;;
27746;SDS011;15138;51.012;4.692;2023-06-10T01:51:00;8.60;;;5.65;;
27746;SDS011;15138;51.012;4.692;2023-06-10T01:53:28;9.18;;;5.68;;
27746;SDS011;15138;51.012;4.692;2023-06-10T01:55:58;7.82;;;5.55;;
27746;SDS011;15138;51.012;4.692;2023-06-10T01:58:27;8.68;;;5.68;;
27746;SDS011;15138;51.012;4.692;2023-06-10T02:00:55;7.82;;;6.00;;
27746;SDS011;15138;51.012;4.692;2023-06-10T02:03:24;6.75;;;5.30;;
27746;SDS011;15138;51.012;4.692;2023-06-10T02:05:52;5.80;;;5.18;;
27746;SDS011;15138;51.012;4.692;2023-06-10T02:08:21;8.98;;;5.55;;
27746;SDS011;15138;51.012;4.692;2023-06-10T02:10:49;8.82;;;5.50;;
27746;SDS011;15138;51.012;4.692;2023-06-10T02:13:19;6.50;;;5.78;;
27746;SDS011;15138;51.012;4.692;2023-06-10T02:15:47;7.68;;;5.70;;
27746;SDS011;15138;51.012;4.692;2023-06-10T02:18:16;10.27;;;6.65;;
27746;SDS011;15138;51.012;4.692;2023-06-10T02:20:47;9.30;;;6.22;;
27746;SDS011;15138;51.012;4.692;2023-06-10T02:23:15;7.93;;;5.65;;
27746;SDS011;15138;51.012;4.692;2023-06-10T02:25:44;8.20;;;5.70;;
27746;SDS011;15138;51.012;4.692;2023-06-10T02:28:13;7.15;;;5.80;;
27746;SDS011;15138;51.012;4.692;2023-06-10T02:30:43;10.63;;;6.63;;
27746;SDS011;15138;51.012;4.692;2023-06-10T02:33:13;6.68;;;5.68;;
27746;SDS011;15138;51.012;4.692;2023-06-10T02:35:41;8.02;;;5.45;;
27746;SDS011;15138;51.012;4.692;2023-06-10T02:38:09;11.00;;;5.88;;
27746;SDS011;15138;51.012;4.692;2023-06-10T02:40:38;6.97;;;5.93;;
27746;SDS011;15138;51.012;4.692;2023-06-10T02:43:06;10.13;;;6.20;;
27746;SDS011;15138;51.012;4.692;2023-06-10T02:45:35;7.80;;;5.78;;
27746;SDS011;15138;51.012;4.692;2023-06-10T02:48:05;10.38;;;5.50;;
27746;SDS011;15138;51.012;4.692;2023-06-10T02:50:33;8.15;;;5.93;;
27746;SDS011;15138;51.012;4.692;2023-06-10T02:53:02;9.30;;;6.40;;
27746;SDS011;15138;51.012;4.692;2023-06-10T02:55:30;7.20;;;5.55;;
27746;SDS011;15138;51.012;4.692;2023-06-10T02:57:59;7.78;;;6.20;;
27746;SDS011;15138;51.012;4.692;2023-06-10T03:00:27;7.28;;;6.00;;
27746;SDS011;15138;51.012;4.692;2023-06-10T03:02:56;8.52;;;5.97;;
27746;SDS011;15138;51.012;4.692;2023-06-10T03:05:26;8.93;;;6.28;;
27746;SDS011;15138;51.012;4.692;2023-06-10T03:07:54;11.57;;;6.50;;
27746;SDS011;15138;51.012;4.692;2023-06-10T03:10:22;9.93;;;5.95;;
27746;SDS011;15138;51.012;4.692;2023-06-10T03:12:51;7.10;;;6.13;;
27746;SDS011;15138;51.012;4.692;2023-06-10T03:15:19;8.77;;;6.25;;
27746;SDS011;15138;51.012;4.692;2023-06-10T03:17:48;8.85;;;6.38;;
27746;SDS011;15138;51.012;4.692;2023-06-10T03:20:16;8.45;;;6.60;;
27746;SDS011;15138;51.012;4.692;2023-06-10T03:22:46;8.73;;;6.43;;
27746;SDS011;15138;51.012;4.692;2023-06-10T03:25:15;8.85;;;6.63;;
27746;SDS011;15138;51.012;4.692;2023-06-10T03:27:43;8.38;;;6.78;;
27746;SDS011;15138;51.012;4.692;2023-06-10T03:30:12;8.43;;;6.10;;
27746;SDS011;15138;51.012;4.692;2023-06-10T03:32:40;8.93;;;6.22;;
27746;SDS011;15138;51.012;4.692;2023-06-10T03:35:09;6.55;;;5.93;;
27746;SDS011;15138;51.012;4.692;2023-06-10T03:37:38;6.85;;;5.78;;
27746;SDS011;15138;51.012;4.692;2023-06-10T03:40:08;8.43;;;5.90;;
27746;SDS011;15138;51.012;4.692;2023-06-10T03:42:37;7.30;;;6.22;;
27746;SDS011;15138;51.012;4.692;2023-06-10T03:45:06;10.48;;;6.40;;
27746;SDS011;15138;51.012;4.692;2023-06-10T03:47:36;11.77;;;7.05;;
27746;SDS011;15138;51.012;4.692;2023-06-10T03:50:04;7.88;;;5.78;;
27746;SDS011;15138;51.012;4.692;2023-06-10T03:52:33;8.18;;;6.53;;
27746;SDS011;15138;51.012;4.692;2023-06-10T03:55:01;10.07;;;6.60;;
27746;SDS011;15138;51.012;4.692;2023-06-10T03:57:32;13.48;;;6.68;;
27746;SDS011;15138;51.012;4.692;2023-06-10T04:00:00;11.23;;;7.13;;
27746;SDS011;15138;51.012;4.692;2023-06-10T04:02:32;12.80;;;8.00;;
27746;SDS011;15138;51.012;4.692;2023-06-10T04:05:01;12.88;;;6.85;;
27746;SDS011;15138;51.012;4.692;2023-06-10T04:07:29;8.30;;;6.53;;
27746;SDS011;15138;51.012;4.692;2023-06-10T04:09:58;11.35;;;6.68;;
27746;SDS011;15138;51.012;4.692;2023-06-10T04:12:27;12.52;;;6.32;;
27746;SDS011;15138;51.012;4.692;2023-06-10T04:14:57;12.50;;;6.90;;
27746;SDS011;15138;51.012;4.692;2023-06-10T04:17:26;10.52;;;7.68;;
27746;SDS011;15138;51.012;4.692;2023-06-10T04:19:54;10.43;;;7.68;;
27746;SDS011;15138;51.012;4.692;2023-06-10T04:22:23;11.85;;;6.85;;
27746;SDS011;15138;51.012;4.692;2023-06-10T04:24:51;9.98;;;6.80;;
27746;SDS011;15138;51.012;4.692;2023-06-10T04:27:20;10.20;;;6.95;;
27746;SDS011;15138;51.012;4.692;2023-06-10T04:29:48;7.63;;;6.45;;
27746;SDS011;15138;51.012;4.692;2023-06-10T04:32:18;9.70;;;6.35;;
27746;SDS011;15138;51.012;4.692;2023-06-10T04:34:46;9.45;;;6.80;;
27746;SDS011;15138;51.012;4.692;2023-06-10T04:37:15;10.18;;;7.10;;
27746;SDS011;15138;51.012;4.692;2023-06-10T04:39:44;11.30;;;8.13;;
27746;SDS011;15138;51.012;4.692;2023-06-10T04:42:12;7.65;;;6.85;;
27746;SDS011;15138;51.012;4.692;2023-06-10T04:44:41;11.52;;;7.60;;
27746;SDS011;15138;51.012;4.692;2023-06-10T04:47:10;9.82;;;7.13;;
27746;SDS011;15138;51.012;4.692;2023-06-10T04:49:39;11.30;;;7.95;;
27746;SDS011;15138;51.012;4.692;2023-06-10T04:52:08;8.55;;;7.45;;
27746;SDS011;15138;51.012;4.692;2023-06-10T04:54:36;8.73;;;7.25;;
27746;SDS011;15138;51.012;4.692;2023-06-10T04:57:06;8.85;;;7.70;;
27746;SDS011;15138;51.012;4.692;2023-06-10T04:59:35;13.35;;;8.00;;
27746;SDS011;15138;51.012;4.692;2023-06-10T05:02:04;12.23;;;8.85;;
27746;SDS011;15138;51.012;4.692;2023-06-10T05:04:33;11.80;;;9.13;;
27746;SDS011;15138;51.012;4.692;2023-06-10T05:07:03;9.50;;;7.25;;
27746;SDS011;15138;51.012;4.692;2023-06-10T05:09:31;18.00;;;8.23;;
27746;SDS011;15138;51.012;4.692;2023-06-10T05:12:00;11.95;;;8.93;;
27746;SDS011;15138;51.012;4.692;2023-06-10T05:14:29;12.27;;;9.18;;
27746;SDS011;15138;51.012;4.692;2023-06-10T05:16:57;16.02;;;8.40;;
27746;SDS011;15138;51.012;4.692;2023-06-10T05:19:26;11.90;;;8.05;;
27746;SDS011;15138;51.012;4.692;2023-06-10T05:21:54;11.90;;;8.77;;
27746;SDS011;15138;51.012;4.692;2023-06-10T05:24:24;16.20;;;8.95;;
27746;SDS011;15138;51.012;4.692;2023-06-10T05:26:52;11.85;;;8.70;;
27746;SDS011;15138;51.012;4.692;2023-06-10T05:29:21;16.20;;;9.30;;
27746;SDS011;15138;51.012;4.692;2023-06-10T05:31:49;14.25;;;8.57;;
27746;SDS011;15138;51.012;4.692;2023-06-10T05:34:18;14.20;;;7.63;;
27746;SDS011;15138;51.012;4.692;2023-06-10T05:36:46;18.60;;;9.88;;
27746;SDS011;15138;51.012;4.692;2023-06-10T05:39:15;12.18;;;8.15;;
27746;SDS011;15138;51.012;4.692;2023-06-10T05:41:45;10.95;;;7.93;;
27746;SDS011;15138;51.012;4.692;2023-06-10T05:44:14;13.65;;;8.48;;
27746;SDS011;15138;51.012;4.692;2023-06-10T05:46:42;15.32;;;8.32;;
27746;SDS011;15138;51.012;4.692;2023-06-10T05:49:10;13.45;;;9.05;;
27746;SDS011;15138;51.012;4.692;2023-06-10T05:51:39;11.98;;;8.77;;
27746;SDS011;15138;51.012;4.692;2023-06-10T05:54:07;10.20;;;7.85;;
27746;SDS011;15138;51.012;4.692;2023-06-10T05:56:36;11.05;;;8.85;;
27746;SDS011;15138;51.012;4.692;2023-06-10T05:59:05;13.48;;;8.65;;
27746;SDS011;15138;51.012;4.692;2023-06-10T06:01:35;16.30;;;8.63;;
27746;SDS011;15138;51.012;4.692;2023-06-10T06:04:04;11.43;;;8.00;;
27746;SDS011;15138;51.012;4.692;2023-06-10T06:06:32;15.65;;;8.50;;
27746;SDS011;15138;51.012;4.692;2023-06-10T06:09:01;10.40;;;7.85;;
27746;SDS011;15138;51.012;4.692;2023-06-10T06:11:29;12.25;;;7.93;;
27746;SDS011;15138;51.012;4.692;2023-06-10T06:13:58;12.85;;;7.90;;
27746;SDS011;15138;51.012;4.692;2023-06-10T06:16:27;14.07;;;8.23;;
27746;SDS011;15138;51.012;4.692;2023-06-10T06:18:56;18.38;;;8.38;;
27746;SDS011;15138;51.012;4.692;2023-06-10T06:21:24;15.50;;;7.95;;
27746;SDS011;15138;51.012;4.692;2023-06-10T06:23:53;16.13;;;8.15;;
27746;SDS011;15138;51.012;4.692;2023-06-10T06:26:22;8.80;;;7.25;;
27746;SDS011;15138;51.012;4.692;2023-06-10T06:28:50;12.25;;;7.68;;
27746;SDS011;15138;51.012;4.692;2023-06-10T06:31:18;8.75;;;7.13;;
27746;SDS011;15138;51.012;4.692;2023-06-10T06:33:48;11.00;;;7.57;;
27746;SDS011;15138;51.012;4.692;2023-06-10T06:36:17;12.75;;;7.68;;
27746;SDS011;15138;51.012;4.692;2023-06-10T06:38:45;10.93;;;6.95;;
27746;SDS011;15138;51.012;4.692;2023-06-10T06:41:14;11.38;;;7.32;;
27746;SDS011;15138;51.012;4.692;2023-06-10T06:43:42;14.57;;;7.38;;
27746;SDS011;15138;51.012;4.692;2023-06-10T06:46:10;9.90;;;6.90;;
27746;SDS011;15138;51.012;4.692;2023-06-10T06:48:42;10.88;;;6.53;;
27746;SDS011;15138;51.012;4.692;2023-06-10T06:51:12;12.25;;;6.95;;
27746;SDS011;15138;51.012;4.692;2023-06-10T06:53:41;13.90;;;7.22;;
27746;SDS011;15138;51.012;4.692;2023-06-10T06:56:11;9.90;;;7.03;;
27746;SDS011;15138;51.012;4.692;2023-06-10T06:58:39;12.77;;;6.88;;
27746;SDS011;15138;51.012;4.692;2023-06-10T07:01:08;10.00;;;7.25;;
27746;SDS011;15138;51.012;4.692;2023-06-10T07:03:36;12.05;;;7.45;;
27746;SDS011;15138;51.012;4.692;2023-06-10T07:06:05;12.73;;;7.10;;
27746;SDS011;15138;51.012;4.692;2023-06-10T07:08:35;8.85;;;6.80;;
27746;SDS011;15138;51.012;4.692;2023-06-10T07:11:03;14.10;;;7.70;;
27746;SDS011;15138;51.012;4.692;2023-06-10T07:13:31;10.70;;;6.80;;
27746;SDS011;15138;51.012;4.692;2023-06-10T07:16:00;14.27;;;7.05;;
27746;SDS011;15138;51.012;4.692;2023-06-10T07:18:28;11.88;;;6.90;;
27746;SDS011;15138;51.012;4.692;2023-06-10T07:20:57;8.30;;;6.43;;
27746;SDS011;15138;51.012;4.692;2023-06-10T07:23:25;11.88;;;6.22;;
27746;SDS011;15138;51.012;4.692;2023-06-10T07:25:55;10.05;;;6.93;;
27746;SDS011;15138;51.012;4.692;2023-06-10T07:28:24;29.73;;;7.18;;
27746;SDS011;15138;51.012;4.692;2023-06-10T07:30:53;8.25;;;6.25;;
27746;SDS011;15138;51.012;4.692;2023-06-10T07:33:21;10.43;;;6.45;;
27746;SDS011;15138;51.012;4.692;2023-06-10T07:35:50;10.20;;;6.63;;
27746;SDS011;15138;51.012;4.692;2023-06-10T07:38:18;12.95;;;6.63;;
27746;SDS011;15138;51.012;4.692;2023-06-10T07:40:47;10.90;;;6.05;;
27746;SDS011;15138;51.012;4.692;2023-06-10T07:43:16;12.73;;;6.47;;
27746;SDS011;15138;51.012;4.692;2023-06-10T07:45:45;11.88;;;6.55;;
27746;SDS011;15138;51.012;4.692;2023-06-10T07:48:13;14.50;;;6.43;;
27746;SDS011;15138;51.012;4.692;2023-06-10T07:50:42;8.57;;;5.95;;
27746;SDS011;15138;51.012;4.692;2023-06-10T07:53:10;11.73;;;5.85;;
27746;SDS011;15138;51.012;4.692;2023-06-10T07:55:39;10.20;;;5.80;;
27746;SDS011;15138;51.012;4.692;2023-06-10T07:58:07;8.38;;;5.57;;
27746;SDS011;15138;51.012;4.692;2023-06-10T08:00:38;11.75;;;6.28;;
27746;SDS011;15138;51.012;4.692;2023-06-10T08:03:07;13.43;;;6.38;;
27746;SDS011;15138;51.012;4.692;2023-06-10T08:05:35;7.55;;;6.13;;
27746;SDS011;15138;51.012;4.692;2023-06-10T08:08:04;7.85;;;6.10;;
27746;SDS011;15138;51.012;4.692;2023-06-10T08:10:32;8.45;;;5.78;;
27746;SDS011;15138;51.012;4.692;2023-06-10T08:13:01;7.38;;;5.97;;
27746;SDS011;15138;51.012;4.692;2023-06-10T08:15:32;12.85;;;6.20;;
27746;SDS011;15138;51.012;4.692;2023-06-10T08:18:02;12.35;;;5.60;;
27746;SDS011;15138;51.012;4.692;2023-06-10T08:20:31;12.73;;;5.60;;
27746;SDS011;15138;51.012;4.692;2023-06-10T08:22:59;13.20;;;5.80;;
27746;SDS011;15138;51.012;4.692;2023-06-10T08:25:28;8.80;;;5.72;;
27746;SDS011;15138;51.012;4.692;2023-06-10T08:27:56;12.30;;;5.20;;
27746;SDS011;15138;51.012;4.692;2023-06-10T08:30:25;11.73;;;6.00;;
27746;SDS011;15138;51.012;4.692;2023-06-10T08:32:53;13.23;;;5.35;;
27746;SDS011;15138;51.012;4.692;2023-06-10T08:35:23;10.77;;;5.50;;
27746;SDS011;15138;51.012;4.692;2023-06-10T08:37:52;9.80;;;5.85;;
27746;SDS011;15138;51.012;4.692;2023-06-10T08:40:20;8.55;;;5.65;;
27746;SDS011;15138;51.012;4.692;2023-06-10T08:42:49;7.07;;;4.93;;
27746;SDS011;15138;51.012;4.692;2023-06-10T08:45:21;8.57;;;5.55;;
27746;SDS011;15138;51.012;4.692;2023-06-10T08:47:51;7.35;;;5.20;;
27746;SDS011;15138;51.012;4.692;2023-06-10T08:50:21;9.45;;;5.53;;
27746;SDS011;15138;51.012;4.692;2023-06-10T08:52:53;10.80;;;5.65;;
27746;SDS011;15138;51.012;4.692;2023-06-10T08:55:23;7.68;;;5.65;;
27746;SDS011;15138;51.012;4.692;2023-06-10T08:57:55;9.77;;;5.40;;
27746;SDS011;15138;51.012;4.692;2023-06-10T09:00:24;7.88;;;5.28;;
27746;SDS011;15138;51.012;4.692;2023-06-10T09:02:53;8.75;;;5.40;;
27746;SDS011;15138;51.012;4.692;2023-06-10T09:05:22;5.78;;;4.95;;
27746;SDS011;15138;51.012;4.692;2023-06-10T09:07:52;9.00;;;4.80;;
27746;SDS011;15138;51.012;4.692;2023-06-10T09:10:21;8.82;;;5.45;;
27746;SDS011;15138;51.012;4.692;2023-06-10T09:12:49;8.02;;;5.53;;
27746;SDS011;15138;51.012;4.692;2023-06-10T09:15:18;8.05;;;5.68;;
27746;SDS011;15138;51.012;4.692;2023-06-10T09:17:47;9.73;;;5.15;;
27746;SDS011;15138;51.012;4.692;2023-06-10T09:20:15;7.95;;;5.13;;
27746;SDS011;15138;51.012;4.692;2023-06-10T09:22:44;6.30;;;5.13;;
27746;SDS011;15138;51.012;4.692;2023-06-10T09:25:14;9.10;;;5.60;;
27746;SDS011;15138;51.012;4.692;2023-06-10T09:27:46;9.02;;;5.25;;
27746;SDS011;15138;51.012;4.692;2023-06-10T09:30:24;11.00;;;5.65;;
27746;SDS011;15138;51.012;4.692;2023-06-10T09:32:53;7.90;;;5.45;;
27746;SDS011;15138;51.012;4.692;2023-06-10T09:35:23;8.75;;;4.97;;
27746;SDS011;15138;51.012;4.692;2023-06-10T09:37:52;10.23;;;4.65;;
27746;SDS011;15138;51.012;4.692;2023-06-10T09:40:22;6.90;;;5.80;;
27746;SDS011;15138;51.012;4.692;2023-06-10T09:42:52;7.50;;;5.50;;
27746;SDS011;15138;51.012;4.692;2023-06-10T09:45:21;9.10;;;5.50;;
27746;SDS011;15138;51.012;4.692;2023-06-10T09:47:53;11.52;;;5.00;;
27746;SDS011;15138;51.012;4.692;2023-06-10T09:50:22;8.80;;;4.40;;
27746;SDS011;15138;51.012;4.692;2023-06-10T09:52:50;12.18;;;5.50;;
27746;SDS011;15138;51.012;4.692;2023-06-10T09:55:19;8.60;;;4.80;;
27746;SDS011;15138;51.012;4.692;2023-06-10T09:57:52;5.70;;;4.70;;
27746;SDS011;15138;51.012;4.692;2023-06-10T10:00:22;9.70;;;5.32;;
27746;SDS011;15138;51.012;4.692;2023-06-10T10:02:52;9.27;;;5.07;;
27746;SDS011;15138;51.012;4.692;2023-06-10T10:05:21;10.02;;;5.00;;
27746;SDS011;15138;51.012;4.692;2023-06-10T10:07:50;13.07;;;5.18;;
27746;SDS011;15138;51.012;4.692;2023-06-10T10:10:20;9.85;;;4.78;;
27746;SDS011;15138;51.012;4.692;2023-06-10T10:12:51;6.90;;;4.70;;
27746;SDS011;15138;51.012;4.692;2023-06-10T10:15:22;10.82;;;4.95;;
27746;SDS011;15138;51.012;4.692;2023-06-10T10:17:52;7.90;;;4.78;;
27746;SDS011;15138;51.012;4.692;2023-06-10T10:20:22;6.90;;;4.95;;
27746;SDS011;15138;51.012;4.692;2023-06-10T10:22:53;7.07;;;4.57;;
27746;SDS011;15138;51.012;4.692;2023-06-10T10:25:25;5.95;;;4.20;;
27746;SDS011;15138;51.012;4.692;2023-06-10T10:27:58;5.38;;;4.55;;
27746;SDS011;15138;51.012;4.692;2023-06-10T10:30:28;9.85;;;4.22;;
27746;SDS011;15138;51.012;4.692;2023-06-10T10:32:59;11.70;;;4.53;;
27746;SDS011;15138;51.012;4.692;2023-06-10T10:35:33;7.88;;;4.10;;
27746;SDS011;15138;51.012;4.692;2023-06-10T10:38:02;7.20;;;4.20;;
27746;SDS011;15138;51.012;4.692;2023-06-10T10:40:30;7.32;;;4.40;;
27746;SDS011;15138;51.012;4.692;2023-06-10T10:43:01;6.63;;;4.35;;
27746;SDS011;15138;51.012;4.692;2023-06-10T10:45:30;6.18;;;4.75;;
27746;SDS011;15138;51.012;4.692;2023-06-10T10:47:58;11.90;;;4.97;;
27746;SDS011;15138;51.012;4.692;2023-06-10T10:50:33;7.93;;;4.90;;
27746;SDS011;15138;51.012;4.692;2023-06-10T10:53:01;8.20;;;4.25;;
27746;SDS011;15138;51.012;4.692;2023-06-10T10:55:30;13.20;;;4.30;;
27746;SDS011;15138;51.012;4.692;2023-06-10T10:57:59;7.68;;;3.53;;
27746;SDS011;15138;51.012;4.692;2023-06-10T11:00:29;5.18;;;4.22;;
27746;SDS011;15138;51.012;4.692;2023-06-10T11:02:59;7.53;;;4.10;;
27746;SDS011;15138;51.012;4.692;2023-06-10T11:05:36;12.32;;;4.60;;
27746;SDS011;15138;51.012;4.692;2023-06-10T11:08:05;10.57;;;4.47;;
27746;SDS011;15138;51.012;4.692;2023-06-10T11:10:34;10.07;;;5.03;;
27746;SDS011;15138;51.012;4.692;2023-06-10T11:13:06;8.48;;;4.70;;
27746;SDS011;15138;51.012;4.692;2023-06-10T11:15:40;7.00;;;4.70;;
27746;SDS011;15138;51.012;4.692;2023-06-10T11:18:18;10.88;;;4.65;;
27746;SDS011;15138;51.012;4.692;2023-06-10T11:20:51;9.20;;;4.47;;
27746;SDS011;15138;51.012;4.692;2023-06-10T11:26:11;10.48;;;4.80;;
27746;SDS011;15138;51.012;4.692;2023-06-10T11:28:39;6.03;;;4.35;;
27746;SDS011;15138;51.012;4.692;2023-06-10T11:31:09;6.70;;;4.43;;
27746;SDS011;15138;51.012;4.692;2023-06-10T11:33:47;10.52;;;5.03;;
27746;SDS011;15138;51.012;4.692;2023-06-10T11:36:16;8.23;;;4.47;;
27746;SDS011;15138;51.012;4.692;2023-06-10T11:38:45;7.93;;;4.45;;
27746;SDS011;15138;51.012;4.692;2023-06-10T11:41:13;9.52;;;4.18;;
27746;SDS011;15138;51.012;4.692;2023-06-10T11:43:42;7.22;;;4.20;;
27746;SDS011;15138;51.012;4.692;2023-06-10T11:46:12;7.78;;;4.68;;
27746;SDS011;15138;51.012;4.692;2023-06-10T11:48:48;7.15;;;4.80;;
27746;SDS011;15138;51.012;4.692;2023-06-10T11:51:16;8.50;;;4.45;;
27746;SDS011;15138;51.012;4.692;2023-06-10T11:53:45;9.45;;;4.35;;
27746;SDS011;15138;51.012;4.692;2023-06-10T11:56:14;6.13;;;4.32;;
27746;SDS011;15138;51.012;4.692;2023-06-10T11:58:51;6.47;;;4.32;;
27746;SDS011;15138;51.012;4.692;2023-06-10T12:01:22;5.38;;;4.32;;
27746;SDS011;15138;51.012;4.692;2023-06-10T12:03:56;8.73;;;4.72;;
27746;SDS011;15138;51.012;4.692;2023-06-10T12:06:25;10.25;;;4.38;;
27746;SDS011;15138;51.012;4.692;2023-06-10T12:08:53;4.95;;;3.97;;
27746;SDS011;15138;51.012;4.692;2023-06-10T12:11:39;11.25;;;4.40;;
27746;SDS011;15138;51.012;4.692;2023-06-10T12:14:08;9.88;;;4.32;;
27746;SDS011;15138;51.012;4.692;2023-06-10T12:16:37;6.50;;;4.15;;
27746;SDS011;15138;51.012;4.692;2023-06-10T12:19:06;8.77;;;4.47;;
27746;SDS011;15138;51.012;4.692;2023-06-10T12:21:36;10.50;;;4.60;;
27746;SDS011;15138;51.012;4.692;2023-06-10T12:24:06;10.13;;;4.47;;
27746;SDS011;15138;51.012;4.692;2023-06-10T12:26:36;10.05;;;4.20;;
27746;SDS011;15138;51.012;4.692;2023-06-10T12:29:18;8.00;;;4.25;;
27746;SDS011;15138;51.012;4.692;2023-06-10T12:31:58;10.55;;;4.38;;
27746;SDS011;15138;51.012;4.692;2023-06-10T12:34:34;7.43;;;4.20;;
27746;SDS011;15138;51.012;4.692;2023-06-10T12:37:03;9.07;;;4.22;;
27746;SDS011;15138;51.012;4.692;2023-06-10T12:39:32;8.52;;;4.97;;
27746;SDS011;15138;51.012;4.692;2023-06-10T12:42:01;8.55;;;4.28;;
27746;SDS011;15138;51.012;4.692;2023-06-10T12:44:32;6.78;;;4.15;;
27746;SDS011;15138;51.012;4.692;2023-06-10T12:47:06;7.80;;;3.97;;
27746;SDS011;15138;51.012;4.692;2023-06-10T12:49:36;9.55;;;4.70;;
27746;SDS011;15138;51.012;4.692;2023-06-10T12:52:05;7.32;;;4.32;;
27746;SDS011;15138;51.012;4.692;2023-06-10T12:54:33;11.65;;;4.30;;
27746;SDS011;15138;51.012;4.692;2023-06-10T12:57:02;7.45;;;4.10;;
27746;SDS011;15138;51.012;4.692;2023-06-10T12:59:30;10.00;;;3.70;;
27746;SDS011;15138;51.012;4.692;2023-06-10T13:01:59;6.70;;;4.22;;
27746;SDS011;15138;51.012;4.692;2023-06-10T13:04:29;9.43;;;4.20;;
27746;SDS011;15138;51.012;4.692;2023-06-10T13:06:57;7.53;;;4.20;;
27746;SDS011;15138;51.012;4.692;2023-06-10T13:09:26;10.05;;;4.22;;
27746;SDS011;15138;51.012;4.692;2023-06-10T13:11:54;9.35;;;4.93;;
27746;SDS011;15138;51.012;4.692;2023-06-10T13:14:23;9.48;;;4.28;;
27746;SDS011;15138;51.012;4.692;2023-06-10T13:16:51;6.65;;;4.20;;
27746;SDS011;15138;51.012;4.692;2023-06-10T13:19:21;10.40;;;4.28;;
27746;SDS011;15138;51.012;4.692;2023-06-10T13:21:51;5.40;;;4.03;;
27746;SDS011;15138;51.012;4.692;2023-06-10T13:24:19;8.25;;;4.70;;
27746;SDS011;15138;51.012;4.692;2023-06-10T13:26:48;6.43;;;4.38;;
27746;SDS011;15138;51.012;4.692;2023-06-10T13:29:16;5.63;;;4.03;;
27746;SDS011;15138;51.012;4.692;2023-06-10T13:31:44;7.45;;;4.40;;
27746;SDS011;15138;51.012;4.692;2023-06-10T13:34:13;10.13;;;4.72;;
27746;SDS011;15138;51.012;4.692;2023-06-10T13:36:41;8.30;;;4.07;;
27746;SDS011;15138;51.012;4.692;2023-06-10T13:39:11;5.82;;;4.18;;
27746;SDS011;15138;51.012;4.692;2023-06-10T13:41:40;6.55;;;4.20;;
27746;SDS011;15138;51.012;4.692;2023-06-10T13:44:09;6.45;;;3.88;;
27746;SDS011;15138;51.012;4.692;2023-06-10T13:46:37;5.07;;;4.07;;
27746;SDS011;15138;51.012;4.692;2023-06-10T13:49:06;8.20;;;4.53;;
27746;SDS011;15138;51.012;4.692;2023-06-10T13:51:35;8.18;;;4.82;;
27746;SDS011;15138;51.012;4.692;2023-06-10T13:54:03;8.45;;;4.38;;
27746;SDS011;15138;51.012;4.692;2023-06-10T13:56:33;7.22;;;4.32;;
27746;SDS011;15138;51.012;4.692;2023-06-10T13:59:04;6.10;;;4.43;;
27746;SDS011;15138;51.012;4.692;2023-06-10T14:01:32;6.28;;;4.35;;
27746;SDS011;15138;51.012;4.692;2023-06-10T14:04:01;6.60;;;4.53;;
27746;SDS011;15138;51.012;4.692;2023-06-10T14:06:29;8.60;;;4.30;;
27746;SDS011;15138;51.012;4.692;2023-06-10T14:08:58;9.43;;;4.35;;
27746;SDS011;15138;51.012;4.692;2023-06-10T14:11:27;6.53;;;4.35;;
27746;SDS011;15138;51.012;4.692;2023-06-10T14:14:00;9.05;;;4.35;;
27746;SDS011;15138;51.012;4.692;2023-06-10T14:16:29;9.18;;;4.68;;
27746;SDS011;15138;51.012;4.692;2023-06-10T14:18:57;6.55;;;4.22;;
27746;SDS011;15138;51.012;4.692;2023-06-10T14:21:27;6.57;;;4.10;;
27746;SDS011;15138;51.012;4.692;2023-06-10T14:23:55;8.77;;;4.50;;
27746;SDS011;15138;51.012;4.692;2023-06-10T14:26:23;7.53;;;4.13;;
27746;SDS011;15138;51.012;4.692;2023-06-10T14:28:52;8.07;;;3.97;;
27746;SDS011;15138;51.012;4.692;2023-06-10T14:31:22;8.02;;;4.20;;
27746;SDS011;15138;51.012;4.692;2023-06-10T14:33:50;6.35;;;3.88;;
27746;SDS011;15138;51.012;4.692;2023-06-10T14:36:19;9.00;;;4.25;;
27746;SDS011;15138;51.012;4.692;2023-06-10T14:38:47;8.95;;;3.85;;
27746;SDS011;15138;51.012;4.692;2023-06-10T14:41:16;9.77;;;4.68;;
27746;SDS011;15138;51.012;4.692;2023-06-10T14:43:44;9.10;;;4.35;;
27746;SDS011;15138;51.012;4.692;2023-06-10T14:46:13;10.95;;;4.07;;
27746;SDS011;15138;51.012;4.692;2023-06-10T14:48:43;9.88;;;4.00;;
27746;SDS011;15138;51.012;4.692;2023-06-10T14:51:11;9.20;;;3.78;;
27746;SDS011;15138;51.012;4.692;2023-06-10T14:53:39;6.25;;;3.85;;
27746;SDS011;15138;51.012;4.692;2023-06-10T14:56:08;9.10;;;3.72;;
27746;SDS011;15138;51.012;4.692;2023-06-10T14:58:37;9.20;;;4.18;;